Midlothian/Waxahachie, Mid Way Regional Airport (KJWY)

NameMid Way Regional Airport
CityMidlothian/Waxahachie
CountryUnited States
ICAOKJWY
IATA
Altitude217 m
CoordinatesGoogle Map
Live Air TrafficLiveATC.net
METARKJWY 181655Z AUTO 00000KT 10SM CLR 18/02 A3001 RMK AO2 T01810024
2019-11-18 16:55:00 Wind: North (0°) 0 m/s - Visibility: 16093.4 m - Temperature: 18 °C - Dew point: 2 °C - Humidity: 34.4% - Pressure: 1016.26 hPa
Statistics

The table below shows the detailed information of all flights to/from Midlothian/Waxahachie, Mid Way Regional Airport (KJWY).